Time;durP1;ratioP1;P1;durP2;ratioP2;P2;SDS_P1;SDS_P2;PMS_P1;PMS_P2;Temp;Humidity;BMP_temperature;BMP_pressure;BME280_temperature;BME280_humidity;BME280_pressure;Samples;Min_cycle;Max_cycle;Signal;HPM_P1;HPM_P2
2023/07/21 00:00:21;;;;;;;11.43;5.85;;;;;;;16.65;100.00;100838.38;5027144;28;20057;-71
2023/07/21 00:02:49;;;;;;;10.65;5.75;;;;;;;16.59;100.00;100833.84;5028474;28;20106;-72
2023/07/21 00:05:16;;;;;;;9.82;5.57;;;;;;;16.53;100.00;100833.63;5024816;28;20096;-72
2023/07/21 00:07:44;;;;;;;10.75;6.25;;;;;;;16.47;100.00;100832.63;5024008;28;20048;-72
2023/07/21 00:10:11;;;;;;;15.20;5.57;;;;;;;16.45;100.00;100832.34;5028494;28;20133;-72
2023/07/21 00:12:42;;;;;;;10.98;5.88;;;;;;;16.43;100.00;100834.78;5023641;28;20049;-72
2023/07/21 00:15:18;;;;;;;12.18;5.90;;;;;;;16.37;100.00;100833.03;5028081;28;20045;-71
2023/07/21 00:17:49;;;;;;;11.40;5.65;;;;;;;16.32;100.00;100834.38;5029147;28;20080;-72
2023/07/21 00:20:21;;;;;;;13.57;5.70;;;;;;;16.25;100.00;100825.41;5026136;28;20057;-72
2023/07/21 00:22:49;;;;;;;13.23;5.60;;;;;;;16.22;100.00;100827.09;5025137;28;20050;-72
2023/07/21 00:25:17;;;;;;;14.25;6.85;;;;;;;16.19;100.00;100816.78;5022474;28;20524;-72
2023/07/21 00:27:44;;;;;;;15.57;5.97;;;;;;;16.18;100.00;100820.84;5026489;28;20053;-72
2023/07/21 00:30:12;;;;;;;12.60;6.15;;;;;;;16.15;100.00;100821.75;5027433;28;20069;-71
2023/07/21 00:32:41;;;;;;;11.05;5.93;;;;;;;16.10;100.00;100813.88;5005730;28;20132;-72
2023/07/21 00:35:09;;;;;;;10.35;5.95;;;;;;;16.03;100.00;100807.75;5025821;28;20054;-72
2023/07/21 00:37:38;;;;;;;11.23;5.65;;;;;;;16.02;100.00;100806.97;5013747;28;20072;-72
2023/07/21 00:40:19;;;;;;;14.40;7.13;;;;;;;15.99;100.00;100810.66;5022209;28;20100;-72
2023/07/21 00:42:46;;;;;;;10.57;6.00;;;;;;;15.86;100.00;100790.28;5024068;28;20077;-71
2023/07/21 00:45:14;;;;;;;11.32;6.15;;;;;;;15.92;100.00;100805.31;5028080;28;20050;-73
2023/07/21 00:47:42;;;;;;;15.70;6.43;;;;;;;15.85;100.00;100797.13;5019739;28;20049;-71
2023/07/21 00:50:10;;;;;;;10.30;6.00;;;;;;;15.76;100.00;100793.47;5028243;28;20104;-72
2023/07/21 00:52:46;;;;;;;10.90;6.28;;;;;;;15.70;100.00;100793.22;5024143;28;20168;-71
2023/07/21 00:55:14;;;;;;;11.45;6.05;;;;;;;15.65;100.00;100793.78;5024525;28;20425;-72
2023/07/21 00:57:42;;;;;;;12.93;7.38;;;;;;;15.61;100.00;100792.34;5025007;28;20425;-71
2023/07/21 01:00:12;;;;;;;15.35;7.35;;;;;;;15.58;100.00;100793.22;5025503;28;20137;-72
2023/07/21 01:02:40;;;;;;;14.20;6.75;;;;;;;15.55;100.00;100796.94;5020462;28;20053;-71
2023/07/21 01:05:08;;;;;;;14.18;7.05;;;;;;;15.51;100.00;100799.06;5026772;28;20390;-73
2023/07/21 01:07:38;;;;;;;12.88;6.95;;;;;;;15.40;100.00;100791.03;5024661;28;20060;-73
2023/07/21 01:10:07;;;;;;;11.85;6.28;;;;;;;15.45;100.00;100798.06;5018361;28;20129;-73
2023/07/21 01:12:34;;;;;;;15.57;7.35;;;;;;;15.42;100.00;100799.75;5019452;28;20072;-71
2023/07/21 01:15:01;;;;;;;12.13;6.93;;;;;;;15.36;100.00;100793.13;5023740;28;20691;-71
2023/07/21 01:17:29;;;;;;;14.63;7.45;;;;;;;15.31;100.00;100787.28;5020727;28;20053;-72
2023/07/21 01:19:58;;;;;;;14.48;6.20;;;;;;;15.27;100.00;100793.00;5017900;28;20046;-72
2023/07/21 01:22:28;;;;;;;13.30;7.30;;;;;;;15.22;100.00;100787.19;5025491;28;20053;-72
2023/07/21 01:24:55;;;;;;;12.50;6.60;;;;;;;15.14;100.00;100783.00;5024281;28;20049;-72
2023/07/21 01:27:24;;;;;;;14.50;7.47;;;;;;;15.13;100.00;100787.06;5023322;28;20505;-71
2023/07/21 01:29:51;;;;;;;15.50;6.90;;;;;;;15.13;100.00;100787.84;5018969;28;20100;-72
2023/07/21 01:32:22;;;;;;;11.77;6.78;;;;;;;15.12;100.00;100791.84;5028001;28;20557;-72
2023/07/21 01:34:50;;;;;;;13.18;6.50;;;;;;;15.17;100.00;100782.13;5026585;28;20053;-72
2023/07/21 01:37:18;;;;;;;14.52;6.28;;;;;;;15.15;100.00;100776.97;5028182;28;20087;-72
2023/07/21 01:39:46;;;;;;;15.07;7.32;;;;;;;15.10;100.00;100759.94;5029173;28;20037;-72
2023/07/21 01:42:13;;;;;;;11.98;6.45;;;;;;;15.16;100.00;100777.75;5022981;28;20141;-72
2023/07/21 01:44:39;;;;;;;11.93;6.75;;;;;;;15.12;100.00;100761.06;5022034;28;20521;-70
2023/07/21 01:47:06;;;;;;;15.90;7.50;;;;;;;15.12;100.00;100769.47;5020098;28;20080;-71
2023/07/21 01:49:33;;;;;;;14.52;7.22;;;;;;;15.12;100.00;100766.66;5026892;28;20077;-71
2023/07/21 01:52:00;;;;;;;14.43;7.22;;;;;;;15.09;100.00;100756.34;5028163;28;20049;-72
2023/07/21 01:54:41;;;;;;;15.70;7.57;;;;;;;15.09;100.00;100761.19;5005330;28;20057;-72
2023/07/21 01:57:12;;;;;;;15.38;7.28;;;;;;;15.04;100.00;100754.13;5025085;28;20140;-73
2023/07/21 01:59:43;;;;;;;12.55;7.22;;;;;;;15.00;100.00;100753.44;5028460;28;20045;-73
2023/07/21 02:02:10;;;;;;;12.25;7.03;;;;;;;14.94;100.00;100744.81;5017483;28;20181;-72
2023/07/21 02:04:38;;;;;;;10.60;6.57;;;;;;;14.95;100.00;100754.00;5028561;28;20111;-72
2023/07/21 02:07:05;;;;;;;11.98;6.95;;;;;;;14.92;100.00;100752.88;5023279;28;20046;-72
2023/07/21 02:09:31;;;;;;;13.15;6.90;;;;;;;14.92;100.00;100754.88;5020750;28;20081;-70
2023/07/21 02:11:58;;;;;;;15.27;7.30;;;;;;;14.94;100.00;100752.44;5021745;28;20329;-71
2023/07/21 02:14:25;;;;;;;17.40;8.35;;;;;;;14.90;100.00;100740.56;5026827;28;20069;-72
2023/07/21 02:16:51;;;;;;;14.70;7.32;;;;;;;14.91;100.00;100748.50;5025618;28;20120;-72
2023/07/21 02:19:19;;;;;;;11.65;6.45;;;;;;;14.85;100.00;100743.91;5027808;28;20124;-71
2023/07/21 02:21:45;;;;;;;12.88;6.57;;;;;;;14.84;100.00;100745.94;5019851;28;20057;-72
2023/07/21 02:24:12;;;;;;;13.32;6.55;;;;;;;14.85;100.00;100746.69;5025562;28;20493;-73
2023/07/21 02:26:38;;;;;;;15.18;7.20;;;;;;;14.86;100.00;100743.47;5024642;28;20406;-72
2023/07/21 02:29:05;;;;;;;14.13;6.47;;;;;;;14.85;100.00;100738.31;5019642;28;20081;-72
2023/07/21 02:31:32;;;;;;;15.07;6.90;;;;;;;14.82;100.00;100736.41;5027013;28;20643;-72
2023/07/21 02:33:58;;;;;;;13.27;7.13;;;;;;;14.82;100.00;100737.19;5026878;28;20080;-72
2023/07/21 02:36:25;;;;;;;13.98;6.85;;;;;;;14.81;100.00;100735.63;5028063;28;20430;-72
2023/07/21 02:38:52;;;;;;;10.10;5.95;;;;;;;14.77;100.00;100736.97;5026093;28;20045;-72
2023/07/21 02:41:18;;;;;;;14.80;5.95;;;;;;;14.76;100.00;100736.16;5020028;28;20096;-71
2023/07/21 02:43:45;;;;;;;11.63;6.90;;;;;;;14.70;100.00;100729.56;5028087;28;20111;-72
2023/07/21 02:46:13;;;;;;;12.57;6.38;;;;;;;14.69;100.00;100727.97;5022232;28;20046;-72
2023/07/21 02:48:40;;;;;;;12.90;6.70;;;;;;;14.72;100.00;100732.69;5025170;28;20048;-70
2023/07/21 02:51:06;;;;;;;10.90;6.30;;;;;;;14.70;100.00;100729.56;5020904;28;20132;-72
2023/07/21 02:53:33;;;;;;;13.75;6.50;;;;;;;14.64;100.00;100727.75;5026806;28;20050;-72
2023/07/21 02:56:00;;;;;;;15.75;6.60;;;;;;;14.66;100.00;100740.06;5026089;28;20061;-73
2023/07/21 02:58:27;;;;;;;13.48;6.95;;;;;;;14.69;100.00;100738.41;5027658;28;20045;-73
2023/07/21 03:00:54;;;;;;;12.88;6.53;;;;;;;14.68;100.00;100731.22;5024468;28;20072;-73
2023/07/21 03:03:24;;;;;;;12.75;6.72;;;;;;;14.67;100.00;100735.25;5019995;28;20067;-73
2023/07/21 03:05:52;;;;;;;16.80;6.97;;;;;;;14.66;100.00;100742.09;5024620;28;20048;-73
2023/07/21 03:08:26;;;;;;;13.25;6.80;;;;;;;14.61;100.00;100734.22;5026057;28;20127;-73
2023/07/21 03:10:53;;;;;;;14.52;7.90;;;;;;;14.59;100.00;100739.50;5024997;28;20045;-72
2023/07/21 03:13:20;;;;;;;13.68;6.57;;;;;;;14.56;100.00;100729.19;5027843;28;20096;-72
2023/07/21 03:15:47;;;;;;;14.20;7.13;;;;;;;14.56;100.00;100737.59;5026553;28;20049;-72
2023/07/21 03:18:13;;;;;;;15.20;6.32;;;;;;;14.49;100.00;100732.97;5019676;28;20073;-72
2023/07/21 03:20:40;;;;;;;14.82;7.47;;;;;;;14.37;100.00;100730.13;5020062;28;20688;-73
2023/07/21 03:23:07;;;;;;;15.05;7.80;;;;;;;14.29;100.00;100735.16;5024379;28;20049;-72
2023/07/21 03:25:34;;;;;;;15.88;8.23;;;;;;;14.27;100.00;100728.41;5027466;28;20104;-70
2023/07/21 03:28:02;;;;;;;12.73;6.95;;;;;;;14.32;100.00;100720.25;5025162;28;20136;-71
2023/07/21 03:30:29;;;;;;;13.75;6.97;;;;;;;14.34;100.00;100711.41;5026045;28;20064;-72
2023/07/21 03:32:55;;;;;;;14.77;7.55;;;;;;;14.38;100.00;100724.09;5023205;28;20190;-72
2023/07/21 03:35:22;;;;;;;13.55;7.13;;;;;;;14.39;100.00;100724.88;5025958;28;20429;-72
2023/07/21 03:37:49;;;;;;;15.20;7.82;;;;;;;14.40;100.00;100726.44;5024871;28;20132;-73
2023/07/21 03:40:16;;;;;;;14.35;7.53;;;;;;;14.40;100.00;100724.44;5022948;28;20065;-71
2023/07/21 03:42:42;;;;;;;15.00;7.82;;;;;;;14.36;100.00;100722.97;5027737;28;20107;-72
2023/07/21 03:45:09;;;;;;;12.95;7.53;;;;;;;14.40;100.00;100730.03;5031020;28;20049;-72
2023/07/21 03:47:36;;;;;;;15.52;7.10;;;;;;;14.40;100.00;100726.44;5018305;28;20061;-71
2023/07/21 03:50:03;;;;;;;13.02;7.47;;;;;;;14.40;100.00;100732.03;5012538;28;20045;-71
2023/07/21 03:52:29;;;;;;;14.43;8.10;;;;;;;14.40;100.00;100726.44;5026427;28;20046;-71
2023/07/21 03:54:56;;;;;;;12.60;7.43;;;;;;;14.37;100.00;100732.91;5010549;28;20042;-72
2023/07/21 03:57:23;;;;;;;14.98;7.68;;;;;;;14.39;100.00;100736.06;5020025;28;20053;-72
2023/07/21 03:59:49;;;;;;;15.15;7.88;;;;;;;14.36;100.00;100723.75;5029914;28;20607;-70
2023/07/21 04:02:16;;;;;;;16.25;7.07;;;;;;;14.36;100.00;100729.34;5020412;28;20122;-72
2023/07/21 04:04:45;;;;;;;15.60;9.02;;;;;;;14.29;100.00;100720.38;5028455;28;20103;-72
2023/07/21 04:07:12;;;;;;;16.27;8.48;;;;;;;14.22;100.00;100712.19;5027186;28;20045;-72
2023/07/21 04:09:39;;;;;;;15.73;8.90;;;;;;;14.24;100.00;100724.50;5026838;28;20506;-69
2023/07/21 04:12:07;;;;;;;14.15;8.07;;;;;;;14.23;100.00;100724.94;5026154;28;20136;-73
2023/07/21 04:14:33;;;;;;;18.15;11.85;;;;;;;14.29;100.00;100728.75;5030489;28;20053;-73
2023/07/21 04:17:00;;;;;;;18.33;11.50;;;;;;;14.27;100.00;100722.81;5022451;28;20053;-71
2023/07/21 04:19:26;;;;;;;17.90;10.60;;;;;;;14.11;100.00;100720.09;5029632;28;20502;-72
2023/07/21 04:21:53;;;;;;;17.98;10.50;;;;;;;14.07;100.00;100724.97;5030075;28;20081;-72
2023/07/21 04:24:20;;;;;;;20.80;12.35;;;;;;;14.10;100.00;100726.88;5029667;28;20069;-73
2023/07/21 04:26:47;;;;;;;17.33;8.90;;;;;;;14.16;100.00;100728.72;5024428;28;20136;-72
2023/07/21 04:29:13;;;;;;;15.95;8.02;;;;;;;14.21;100.00;100719.78;5027879;28;20049;-69
2023/07/21 04:31:59;;;;;;;17.85;8.65;;;;;;;14.25;100.00;100720.47;5028185;28;20060;-73
2023/07/21 04:34:26;;;;;;;15.20;8.45;;;;;;;14.29;100.00;100714.78;5029860;28;20667;-71
2023/07/21 04:36:52;;;;;;;15.02;7.97;;;;;;;14.33;100.00;100721.03;5026969;28;20053;-73
2023/07/21 04:39:19;;;;;;;19.55;10.10;;;;;;;14.37;100.00;100716.94;5021848;28;20068;-72
2023/07/21 04:41:45;;;;;;;21.88;11.82;;;;;;;14.34;100.00;100722.59;5029102;28;20154;-72
2023/07/21 04:44:12;;;;;;;20.27;11.63;;;;;;;14.38;100.00;100738.06;5006735;28;20049;-73
2023/07/21 04:46:38;;;;;;;19.95;11.98;;;;;;;14.31;100.00;100735.47;5025390;28;20115;-73
2023/07/21 04:49:07;;;;;;;20.90;12.68;;;;;;;14.28;100.00;100732.78;5023099;28;20041;-72
2023/07/21 04:51:33;;;;;;;22.67;12.10;;;;;;;14.30;100.00;100733.13;5030092;28;20077;-72
2023/07/21 04:54:00;;;;;;;21.67;12.75;;;;;;;14.36;100.00;100737.75;5012049;28;20480;-72
2023/07/21 04:56:28;;;;;;;23.42;12.77;;;;;;;14.40;100.00;100732.03;5027112;28;20521;-71
2023/07/21 04:58:55;;;;;;;21.42;13.68;;;;;;;14.32;100.00;100742.63;5027979;28;20046;-73
2023/07/21 05:01:22;;;;;;;20.27;12.95;;;;;;;14.26;100.00;100732.44;5003827;28;20092;-72
2023/07/21 05:03:48;;;;;;;20.65;13.20;;;;;;;14.15;100.00;100740.34;5023606;28;20061;-73
2023/07/21 05:06:15;;;;;;;25.48;15.57;;;;;;;14.16;100.00;100739.09;5029509;28;20630;-72
2023/07/21 05:08:43;;;;;;;22.20;13.88;;;;;;;14.11;100.00;100736.88;5021180;28;20115;-73
2023/07/21 05:11:10;;;;;;;26.35;14.52;;;;;;;14.19;100.00;100744.63;5027139;28;20132;-71
2023/07/21 05:13:37;;;;;;;23.33;14.35;;;;;;;14.22;100.00;100745.75;5029366;28;20128;-73
2023/07/21 05:16:04;;;;;;;25.98;15.30;;;;;;;14.20;100.00;100740.59;5026270;28;20076;-74
2023/07/21 05:18:31;;;;;;;21.50;12.90;;;;;;;14.23;100.00;100747.31;5019786;28;20498;-72
2023/07/21 05:20:57;;;;;;;22.63;14.27;;;;;;;14.18;100.00;100740.22;5024759;28;20421;-73
2023/07/21 05:23:24;;;;;;;24.08;14.75;;;;;;;14.26;100.00;100747.22;5010893;28;20042;-73
2023/07/21 05:26:00;;;;;;;22.52;13.98;;;;;;;14.20;100.00;100750.97;5025235;28;20100;-73
2023/07/21 05:28:28;;;;;;;20.85;12.65;;;;;;;14.23;100.00;100750.09;5022968;28;20053;-72
2023/07/21 05:30:56;;;;;;;22.73;14.23;;;;;;;14.31;100.00;100748.66;5020398;28;20399;-71
2023/07/21 05:33:23;;;;;;;23.80;13.50;;;;;;;14.37;100.00;100744.09;5011455;28;20049;-72
2023/07/21 05:35:49;;;;;;;21.77;13.40;;;;;;;14.57;100.00;100739.16;5027211;28;20060;-72
2023/07/21 05:38:16;;;;;;;22.33;14.15;;;;;;;14.72;100.00;100737.53;5026785;28;20485;-72
2023/07/21 05:40:43;;;;;;;24.13;13.30;;;;;;;14.83;100.00;100737.97;5028660;28;20056;-72
2023/07/21 05:43:09;;;;;;;20.55;13.10;;;;;;;14.88;100.00;100734.63;5025827;28;20057;-71
2023/07/21 05:45:38;;;;;;;24.65;14.25;;;;;;;14.98;100.00;100733.50;5002716;28;20813;-72
2023/07/21 05:48:05;;;;;;;26.83;15.40;;;;;;;15.11;100.00;100737.09;5025533;28;20045;-73
2023/07/21 05:50:35;;;;;;;21.20;13.68;;;;;;;15.25;100.00;100733.84;5028764;28;20069;-72
2023/07/21 05:53:01;;;;;;;20.85;13.65;;;;;;;15.34;100.00;100733.97;5023555;28;20111;-71
2023/07/21 05:55:28;;;;;;;23.83;13.95;;;;;;;15.30;100.00;100724.88;5025400;28;20049;-73
2023/07/21 06:06:18;;;;;;;19.88;12.30;;;;;;;15.51;100.00;100724.22;5020263;28;20044;-73
2023/07/21 06:08:51;;;;;;;23.42;13.43;;;;;;;15.66;100.00;100722.50;5012264;28;20049;-74
2023/07/21 06:11:18;;;;;;;20.73;12.68;;;;;;;15.74;100.00;100723.03;5027977;28;20045;-73
2023/07/21 06:13:44;;;;;;;20.65;12.50;;;;;;;15.79;100.00;100712.03;5025400;28;20068;-72
2023/07/21 06:16:11;;;;;;;21.58;13.18;;;;;;;15.84;100.00;100714.28;5027948;28;20652;-72
2023/07/21 06:18:37;;;;;;;20.88;13.38;;;;;;;15.90;100.00;100720.84;5013993;28;20136;-73
2023/07/21 06:21:04;;;;;;;24.52;13.40;;;;;;;16.00;100.00;100714.09;5024935;28;20069;-73
2023/07/21 06:23:30;;;;;;;20.20;12.63;;;;;;;16.08;100.00;100720.22;5027375;28;20505;-72
2023/07/21 06:25:57;;;;;;;22.65;15.07;;;;;;;16.13;100.00;100712.00;5026327;28;20081;-72
2023/07/21 06:28:24;;;;;;;23.75;14.57;;;;;;;16.13;100.00;100709.22;5021744;28;20057;-73
2023/07/21 06:30:50;;;;;;;25.73;15.80;;;;;;;16.19;100.00;100718.59;5027193;28;20049;-73
2023/07/21 06:33:17;;;;;;;25.45;16.65;;;;;;;16.20;100.00;100711.75;5026019;28;20073;-71
2023/07/21 06:35:43;;;;;;;24.70;15.90;;;;;;;16.24;100.00;100712.41;5027220;28;20060;-72
2023/07/21 06:38:10;;;;;;;27.83;18.10;;;;;;;16.31;100.00;100722.63;5005647;28;20057;-76
2023/07/21 06:40:36;;;;;;;26.02;15.27;;;;;;;16.36;100.00;100717.22;5002041;28;20073;-74
2023/07/21 06:43:03;;;;;;;24.08;16.55;;;;;;;16.40;100.00;100709.44;5009106;28;20049;-73
2023/07/21 06:45:30;;;;;;;22.33;15.15;;;;;;;16.35;100.00;100712.84;5025467;28;20647;-73
2023/07/21 06:47:57;;;;;;;25.85;16.05;;;;;;;16.17;100.00;100701.44;5026773;28;20084;-73
2023/07/21 06:50:24;;;;;;;24.52;13.82;;;;;;;16.19;100.00;100709.41;5026573;28;20041;-73
2023/07/21 06:52:50;;;;;;;22.33;15.13;;;;;;;16.25;100.00;100702.78;5027653;28;20156;-73
2023/07/21 06:55:18;;;;;;;23.73;14.50;;;;;;;16.31;100.00;100706.56;5026161;28;20053;-73
2023/07/21 06:57:45;;;;;;;23.67;15.18;;;;;;;16.34;100.00;100707.69;5017109;28;20092;-74
2023/07/21 07:00:14;;;;;;;21.50;14.85;;;;;;;16.41;100.00;100708.19;5027388;28;20061;-73
2023/07/21 07:02:47;;;;;;;23.73;16.50;;;;;;;16.47;100.00;100709.16;5018842;28;20061;-73
2023/07/21 07:05:14;;;;;;;24.23;14.38;;;;;;;16.57;100.00;100710.78;5022510;28;20425;-71
2023/07/21 07:07:40;;;;;;;21.38;12.35;;;;;;;16.59;100.00;100704.72;5025010;28;20692;-74
2023/07/21 07:10:07;;;;;;;20.42;10.35;;;;;;;16.54;100.00;100713.75;5017746;28;20681;-75
2023/07/21 07:12:34;;;;;;;21.05;11.70;;;;;;;16.71;100.00;100706.69;5023063;28;20077;-72
2023/07/21 07:15:01;;;;;;;20.70;11.85;;;;;;;16.70;100.00;100697.47;5020483;28;20081;-74
2023/07/21 07:17:28;;;;;;;21.20;12.90;;;;;;;16.77;100.00;100700.00;5025716;28;20130;-75
2023/07/21 07:19:55;;;;;;;20.33;11.13;;;;;;;16.83;100.00;100689.72;5011119;28;20046;-74
2023/07/21 07:22:22;;;;;;;19.48;10.95;;;;;;;16.90;100.00;100697.88;5030863;28;20072;-74
2023/07/21 07:24:49;;;;;;;21.50;10.75;;;;;;;17.03;100.00;100689.34;5031176;28;20128;-71
2023/07/21 07:27:15;;;;;;;18.23;9.93;;;;;;;17.09;100.00;100691.06;5013727;28;20130;-74
2023/07/21 07:29:42;;;;;;;8.30;3.85;;;;;;;16.92;100.00;100694.59;5022880;28;20100;-73
2023/07/21 07:32:08;;;;;;;16.48;7.60;;;;;;;17.01;100.00;100687.00;5029585;28;20045;-74
2023/07/21 07:34:35;;;;;;;17.90;8.70;;;;;;;17.12;100.00;100692.97;5028555;28;20103;-74
2023/07/21 07:37:02;;;;;;;8.43;3.28;;;;;;;17.08;100.00;100695.13;5022304;28;20060;-73
2023/07/21 07:39:30;;;;;;;20.92;10.82;;;;;;;17.24;100.00;100688.50;5018756;28;20079;-73
2023/07/21 07:41:56;;;;;;;18.00;10.38;;;;;;;17.43;100.00;100688.06;5029711;28;20049;-74
2023/07/21 07:44:23;;;;;;;13.88;5.82;;;;;;;17.30;100.00;100693.06;5025084;28;20123;-71
2023/07/21 07:46:50;;;;;;;18.35;10.50;;;;;;;17.35;100.00;100689.63;5030479;28;20497;-75
2023/07/21 07:49:16;;;;;;;20.10;9.95;;;;;;;17.38;100.00;100687.16;5025875;28;20050;-73
2023/07/21 07:51:43;;;;;;;18.02;9.88;;;;;;;17.52;100.00;100690.16;5027231;28;20057;-74
2023/07/21 07:54:09;;;;;;;16.45;9.93;;;;;;;17.51;100.00;100685.00;5030620;28;20575;-74
2023/07/21 07:56:36;;;;;;;17.70;10.63;;;;;;;17.63;100.00;100690.47;5013206;28;20057;-74
2023/07/21 07:59:03;;;;;;;20.17;9.63;;;;;;;17.80;100.00;100683.31;5028671;28;20077;-72
2023/07/21 08:01:29;;;;;;;18.73;9.85;;;;;;;17.90;100.00;100684.88;5030832;28;20042;-74
2023/07/21 08:03:56;;;;;;;8.55;4.63;;;;;;;17.89;100.00;100683.28;5024572;28;20056;-74
2023/07/21 08:06:22;;;;;;;17.63;8.70;;;;;;;17.81;100.00;100675.63;5028097;28;20054;-73
2023/07/21 08:08:49;;;;;;;16.17;9.07;;;;;;;17.95;100.00;100675.81;5029778;28;20136;-73
2023/07/21 08:11:16;;;;;;;17.55;9.88;;;;;;;17.97;100.00;100667.72;5030116;28;20559;-72
2023/07/21 08:13:42;;;;;;;16.90;8.07;;;;;;;17.87;100.00;100682.22;5029041;28;20073;-76
2023/07/21 08:16:11;;;;;;;18.50;8.80;;;;;;;18.06;100.00;100687.38;5030482;28;20068;-75
2023/07/21 08:18:38;;;;;;;17.90;9.38;;;;;;;18.18;100.00;100683.63;5029725;28;20049;-73
2023/07/21 08:21:18;;;;;;;19.02;10.65;;;;;;;18.34;100.00;100685.34;5029766;28;20129;-75
2023/07/21 08:23:45;;;;;;;16.50;8.15;;;;;;;18.23;100.00;100687.84;5026673;28;20081;-75
2023/07/21 08:26:12;;;;;;;16.83;8.73;;;;;;;18.21;100.00;100682.69;5020183;28;20069;-72
2023/07/21 08:28:39;;;;;;;15.15;7.10;;;;;;;18.24;100.00;100684.56;5028280;28;20045;-71
2023/07/21 08:31:05;;;;;;;14.55;7.40;;;;;;;18.31;100.00;100687.06;5023090;28;20041;-72
2023/07/21 08:33:32;;;;;;;16.08;8.52;;;;;;;18.34;100.00;100690.97;5030412;28;20049;-70
2023/07/21 08:35:58;;;;;;;19.25;10.15;;;;;;;18.49;100.00;100689.84;5028032;28;20041;-72
2023/07/21 08:38:25;;;;;;;21.55;10.50;;;;;;;18.71;100.00;100684.78;5023199;28;20049;-73
2023/07/21 08:41:01;;;;;;;17.10;9.00;;;;;;;18.93;100.00;100693.00;5027412;28;20077;-74
2023/07/21 08:43:30;;;;;;;17.77;8.73;;;;;;;18.94;100.00;100677.69;5027084;28;20053;-71
2023/07/21 08:46:09;;;;;;;19.20;10.50;;;;;;;18.91;100.00;100685.03;5024532;28;20147;-72
2023/07/21 08:48:37;;;;;;;19.27;9.32;;;;;;;18.95;100.00;100693.31;5024584;28;20497;-72
2023/07/21 08:51:03;;;;;;;19.98;9.02;;;;;;;18.90;100.00;100677.84;5024788;28;20104;-73
2023/07/21 08:53:30;;;;;;;8.18;3.22;;;;;;;19.01;100.00;100672.47;5027511;28;20527;-72
2023/07/21 08:55:59;;;;;;;14.35;7.63;;;;;;;19.02;100.00;100676.06;5005740;28;20050;-75
2023/07/21 08:58:27;;;;;;;16.35;9.23;;;;;;;19.30;100.00;100672.66;5024605;28;20052;-74
2023/07/21 09:00:55;;;;;;;17.20;9.27;;;;;;;19.23;100.00;100656.09;5027932;28;20092;-73
2023/07/21 09:03:25;;;;;;;11.82;5.57;;;;;;;19.30;100.00;100669.03;5020860;28;20403;-74
2023/07/21 09:06:19;;;;;;;18.25;9.20;;;;;;;19.24;100.00;100660.47;5022902;28;20046;-73
2023/07/21 09:09:04;;;;;;;19.33;9.00;;;;;;;19.46;100.00;100665.81;5028643;28;20064;-73
2023/07/21 09:11:34;;;;;;;16.92;9.55;;;;;;;19.62;100.00;100666.19;5026892;28;20045;-73
2023/07/21 09:14:02;;;;;;;15.20;7.13;;;;;;;19.84;100.00;100663.03;5011747;28;20064;-73
2023/07/21 09:16:32;;;;;;;14.20;6.63;;;;;;;19.89;100.00;100662.41;5026639;28;20049;-72
2023/07/21 09:18:59;;;;;;;19.20;7.53;;;;;;;20.22;100.00;100667.91;5027425;28;20084;-71
2023/07/21 09:21:26;;;;;;;13.98;6.70;;;;;;;20.28;100.00;100666.75;5025547;28;20049;-73
2023/07/21 09:24:00;;;;;;;13.93;6.10;;;;;;;20.24;100.00;100666.16;5027369;28;20115;-73
2023/07/21 09:26:27;;;;;;;12.35;7.30;;;;;;;20.23;100.00;100666.66;5026442;28;20088;-74
2023/07/21 09:28:54;;;;;;;14.43;6.72;;;;;;;19.94;100.00;100667.34;5024462;28;20049;-74
2023/07/21 09:31:33;;;;;;;13.32;7.20;;;;;;;19.73;100.00;100666.44;5025618;28;20048;-74
2023/07/21 09:34:08;;;;;;;12.35;6.35;;;;;;;19.54;100.00;100658.56;5028042;28;20057;-73
2023/07/21 09:36:34;;;;;;;9.60;4.93;;;;;;;19.68;100.00;100661.44;5021841;28;20053;-73
2023/07/21 09:39:04;;;;;;;8.93;4.43;;;;;;;19.75;100.00;100658.25;5028351;28;20045;-72
2023/07/21 09:41:34;;;;;;;11.38;5.78;;;;;;;19.85;100.00;100658.19;5025520;28;20052;-72
2023/07/21 09:44:01;;;;;;;15.20;7.65;;;;;;;19.83;100.00;100643.78;5007474;28;20123;-72
2023/07/21 09:46:28;;;;;;;14.88;7.13;;;;;;;19.79;100.00;100656.03;5023662;28;20056;-72
2023/07/21 09:48:55;;;;;;;21.08;8.75;;;;;;;20.02;100.00;100650.84;5028165;28;20045;-74
2023/07/21 09:51:22;;;;;;;15.25;8.52;;;;;;;20.17;100.00;100652.41;5027671;28;20088;-72
2023/07/21 09:53:52;;;;;;;16.52;7.78;;;;;;;20.33;100.00;100660.44;5026473;28;20049;-74
2023/07/21 09:56:20;;;;;;;16.60;8.98;;;;;;;20.22;100.00;100651.75;5025296;28;20490;-73
2023/07/21 09:58:50;;;;;;;13.45;7.25;;;;;;;20.29;100.00;100654.22;5015582;28;20053;-74
2023/07/21 10:01:17;;;;;;;7.00;3.20;;;;;;;20.15;100.00;100652.09;5022560;28;20057;-72
2023/07/21 10:03:44;;;;;;;15.57;9.13;;;;;;;20.27;100.00;100648.28;5025614;28;20417;-72
2023/07/21 10:06:12;;;;;;;3.25;1.73;;;;;;;20.37;100.00;100661.03;5025601;28;20509;-74
2023/07/21 10:08:39;;;;;;;14.93;7.80;;;;;;;20.62;100.00;100643.47;5025478;28;20049;-74
2023/07/21 10:11:07;;;;;;;12.48;6.88;;;;;;;20.59;100.00;100650.09;5028109;28;20042;-74
2023/07/21 10:13:48;;;;;;;18.20;8.60;;;;;;;20.74;100.00;100648.06;5010839;28;20671;-74
2023/07/21 10:16:19;;;;;;;5.28;2.70;;;;;;;20.85;100.00;100658.75;5028211;28;20049;-75
2023/07/21 10:19:06;;;;;;;14.10;7.15;;;;;;;21.10;100.00;100641.19;5022643;28;20061;-73
2023/07/21 10:21:48;;;;;;;13.15;6.55;;;;;;;21.36;100.00;100647.72;5009165;28;20049;-74
2023/07/21 10:24:25;;;;;;;5.47;2.85;;;;;;;21.38;100.00;100645.19;5020476;28;20099;-75
2023/07/21 10:27:00;;;;;;;11.65;5.70;;;;;;;21.49;100.00;100657.44;5023208;28;20514;-75
2023/07/21 10:29:26;;;;;;;9.38;4.88;;;;;;;21.37;100.00;100644.41;5021210;28;20045;-74
2023/07/21 10:31:58;;;;;;;5.07;2.47;;;;;;;21.17;100.00;100643.59;5025956;28;20091;-75
2023/07/21 10:34:34;;;;;;;8.18;3.90;;;;;;;20.98;100.00;100640.25;5025010;28;20478;-75
2023/07/21 10:37:04;;;;;;;8.88;4.72;;;;;;;21.31;100.00;100652.03;5026567;28;20084;-73
2023/07/21 10:39:34;;;;;;;13.07;7.05;;;;;;;21.40;100.00;100643.41;5018460;28;20437;-74
2023/07/21 10:42:03;;;;;;;13.20;6.53;;;;;;;21.65;100.00;100641.97;5021938;28;20066;-73
2023/07/21 10:44:35;;;;;;;15.45;6.80;;;;;;;21.80;100.00;100639.81;5020935;28;20060;-72
2023/07/21 10:47:02;;;;;;;9.50;5.05;;;;;;;21.78;100.00;100645.97;5025712;28;20057;-73
2023/07/21 10:49:29;;;;;;;7.45;4.47;;;;;;;21.74;100.00;100639.75;5016008;28;20112;-75
2023/07/21 10:51:55;;;;;;;8.80;3.67;;;;;;;21.78;100.00;100645.97;5026367;28;20053;-72
2023/07/21 10:54:22;;;;;;;8.60;2.42;;;;;;;21.32;100.00;100647.94;5031631;28;20075;-75
2023/07/21 10:56:51;;;;;;;4.80;2.28;;;;;;;20.96;100.00;100633.53;5024365;28;20068;-74
2023/07/21 10:59:19;;;;;;;6.93;3.60;;;;;;;21.21;100.00;100647.00;5028085;28;20045;-75
2023/07/21 11:01:50;;;;;;;12.45;4.28;;;;;;;21.11;100.00;100640.69;5020362;28;20045;-71
2023/07/21 11:04:27;;;;;;;8.90;4.25;;;;;;;21.43;100.00;100642.44;5023221;28;20041;-73
2023/07/21 11:06:57;;;;;;;13.15;4.80;;;;;;;21.64;100.00;100635.53;5028099;28;20045;-75
2023/07/21 11:09:26;;;;;;;8.77;4.22;;;;;;;21.58;100.00;100631.84;5030273;28;20049;-74
2023/07/21 11:11:56;;;;;;;9.20;4.80;;;;;;;21.75;100.00;100624.34;5029531;28;20096;-74
2023/07/21 11:14:27;;;;;;;13.07;5.28;;;;;;;21.92;100.00;100625.31;5027385;28;20481;-74
2023/07/21 11:16:56;;;;;;;8.88;4.55;;;;;;;21.80;100.00;100631.34;5023014;28;20674;-74
2023/07/21 11:19:27;;;;;;;8.63;4.00;;;;;;;21.71;100.00;100629.44;5026224;28;20061;-72